createdAt,value
2022-09-23T00:00:44.937Z,6.50
2022-09-23T00:02:52.283Z,6.40
2022-09-23T00:04:57.326Z,6.40
2022-09-23T00:07:02.825Z,6.50
2022-09-23T00:09:10.390Z,6.50
2022-09-23T00:11:17.930Z,6.50
2022-09-23T00:13:23.563Z,6.60
2022-09-23T00:15:31.190Z,6.60
2022-09-23T00:17:36.263Z,6.40
2022-09-23T00:19:42.394Z,6.40
2022-09-23T00:21:47.342Z,6.30
2022-09-23T00:23:53.056Z,6.20
2022-09-23T00:26:08.166Z,6.30
2022-09-23T00:28:13.532Z,6.40
2022-09-23T00:30:18.525Z,6.30
2022-09-23T00:32:24.438Z,6.20
2022-09-23T00:34:29.731Z,6.10
2022-09-23T00:36:35.297Z,6.20
2022-09-23T00:38:41.149Z,6.30
2022-09-23T00:40:46.735Z,6.20
2022-09-23T00:42:54.706Z,6.20
2022-09-23T00:45:02.299Z,6.10
2022-09-23T00:47:07.563Z,6.20
2022-09-23T00:49:16.806Z,6.20
2022-09-23T00:51:25.881Z,6.10
2022-09-23T00:53:31.962Z,6.00
2022-09-23T00:55:42.474Z,6.10
2022-09-23T00:57:50.249Z,6.10
2022-09-23T00:59:58.592Z,5.90
2022-09-23T01:02:05.014Z,6.10
2022-09-23T01:04:11.130Z,6.20
2022-09-23T01:06:17.732Z,6.10
2022-09-23T01:08:24.141Z,6.00
2022-09-23T01:10:37.089Z,5.90
2022-09-23T01:13:08.379Z,5.90
2022-09-23T01:15:21.876Z,5.80
2022-09-23T01:17:35.965Z,5.80
2022-09-23T01:20:27.899Z,5.70
2022-09-23T01:22:44.987Z,5.70
2022-09-23T01:25:15.319Z,5.60
2022-09-23T01:27:43.144Z,5.50
2022-09-23T01:30:26.566Z,5.70
2022-09-23T01:33:00.126Z,5.90
2022-09-23T01:35:13.061Z,5.80
2022-09-23T01:37:26.667Z,5.80
2022-09-23T01:39:41.770Z,5.80
2022-09-23T01:41:57.501Z,5.70
2022-09-23T01:44:10.594Z,5.50
2022-09-23T01:46:22.337Z,5.40
2022-09-23T01:48:35.244Z,5.40
2022-09-23T01:51:01.081Z,5.30
2022-09-23T01:53:13.531Z,5.30
2022-09-23T01:55:23.345Z,5.50
2022-09-23T01:57:34.444Z,5.20
2022-09-23T01:59:43.778Z,5.10
2022-09-23T02:01:55.200Z,4.90
2022-09-23T02:04:10.090Z,5.00
2022-09-23T02:06:21.782Z,5.10
2022-09-23T02:08:32.643Z,5.20
2022-09-23T02:10:44.696Z,5.30
2022-09-23T02:12:51.804Z,5.30
2022-09-23T02:15:04.375Z,5.30
2022-09-23T02:17:13.288Z,5.20
2022-09-23T02:19:30.632Z,5.10
2022-09-23T02:21:41.173Z,5.10
2022-09-23T02:23:51.837Z,4.90
2022-09-23T02:26:05.763Z,4.90
2022-09-23T02:28:17.767Z,4.90
2022-09-23T02:30:28.787Z,4.80
2022-09-23T02:32:39.728Z,4.80
2022-09-23T02:34:57.059Z,4.90
2022-09-23T02:37:14.754Z,4.90
2022-09-23T02:39:25.038Z,5.00
2022-09-23T02:41:37.934Z,5.00
2022-09-23T02:43:49.086Z,4.80
2022-09-23T02:45:54.074Z,4.70
2022-09-23T02:48:07.840Z,4.70
2022-09-23T02:50:15.425Z,4.80
2022-09-23T02:52:20.911Z,4.80
2022-09-23T02:54:29.804Z,4.80
2022-09-23T02:56:34.736Z,4.80
2022-09-23T02:58:40.590Z,4.80
2022-09-23T03:01:02.811Z,4.80
2022-09-23T03:03:39.018Z,4.90
2022-09-23T03:05:56.695Z,4.90
2022-09-23T03:08:31.231Z,4.90
2022-09-23T03:10:50.762Z,4.90
2022-09-23T03:13:07.850Z,4.70
2022-09-23T03:15:30.140Z,4.70
2022-09-23T03:17:41.087Z,4.60
2022-09-23T03:19:51.622Z,4.50
2022-09-23T03:22:05.513Z,4.40
2022-09-23T03:24:14.393Z,4.40
2022-09-23T03:26:24.756Z,4.10
2022-09-23T03:28:31.570Z,3.80
2022-09-23T03:30:40.262Z,3.70
2022-09-23T03:32:49.262Z,4.10
2022-09-23T03:34:59.547Z,4.30
2022-09-23T03:37:18.065Z,4.40
2022-09-23T03:39:36.851Z,4.50
2022-09-23T03:41:50.986Z,4.60
2022-09-23T03:43:58.408Z,4.60
2022-09-23T03:46:03.816Z,4.60
2022-09-23T03:48:09.527Z,4.60
2022-09-23T03:50:17.366Z,4.30
2022-09-23T03:52:27.939Z,4.40
2022-09-23T03:54:34.414Z,4.30
2022-09-23T03:56:39.548Z,4.30
2022-09-23T03:58:45.477Z,4.30
2022-09-23T04:00:53.158Z,4.30
2022-09-23T04:02:58.514Z,4.30
2022-09-23T04:05:03.753Z,4.20
2022-09-23T04:07:09.969Z,4.20
2022-09-23T04:09:17.800Z,4.10
2022-09-23T04:11:23.078Z,4.20
2022-09-23T04:13:28.055Z,4.20
2022-09-23T04:15:33.163Z,4.20
2022-09-23T04:17:38.451Z,4.10
2022-09-23T04:19:43.401Z,4.20
2022-09-23T04:21:48.691Z,4.20
2022-09-23T04:23:54.441Z,4.20
2022-09-23T04:26:01.996Z,4.20
2022-09-23T04:28:06.833Z,4.30
2022-09-23T04:30:14.390Z,4.20
2022-09-23T04:32:19.292Z,4.20
2022-09-23T04:34:24.842Z,4.10
2022-09-23T04:36:30.540Z,4.00
2022-09-23T04:38:36.424Z,4.00
2022-09-23T04:40:41.907Z,4.00
2022-09-23T04:42:50.389Z,4.00
2022-09-23T04:44:55.599Z,4.00
2022-09-23T04:47:00.529Z,3.90
2022-09-23T04:49:05.431Z,3.90
2022-09-23T04:51:13.780Z,3.90
2022-09-23T04:53:19.132Z,4.00
2022-09-23T04:55:24.575Z,3.70
2022-09-23T04:57:30.111Z,3.50
2022-09-23T04:59:37.570Z,3.30
2022-09-23T05:01:43.138Z,3.40
2022-09-23T05:03:49.680Z,3.50
2022-09-23T05:05:55.213Z,3.70
2022-09-23T05:08:00.773Z,3.70
2022-09-23T05:10:06.515Z,3.70
2022-09-23T05:12:11.491Z,3.70
2022-09-23T05:14:16.851Z,3.80
2022-09-23T05:16:26.717Z,3.90
2022-09-23T05:18:34.374Z,3.90
2022-09-23T05:20:39.551Z,3.90
2022-09-23T05:22:45.007Z,3.90
2022-09-23T05:24:49.889Z,3.80
2022-09-23T05:26:56.146Z,3.70
2022-09-23T05:29:02.446Z,4.00
2022-09-23T05:31:14.735Z,4.00
2022-09-23T05:33:26.352Z,4.10
2022-09-23T05:35:32.655Z,4.20
2022-09-23T05:37:38.329Z,4.10
2022-09-23T05:39:43.250Z,4.10
2022-09-23T05:41:49.069Z,4.20
2022-09-23T05:43:55.536Z,4.20
2022-09-23T05:46:08.187Z,4.30
2022-09-23T05:48:13.466Z,4.10
2022-09-23T05:50:21.579Z,4.10
2022-09-23T05:52:26.990Z,3.90
2022-09-23T05:54:31.870Z,3.90
2022-09-23T05:56:38.295Z,3.90
2022-09-23T05:58:44.261Z,3.60
2022-09-23T06:00:49.273Z,3.50
2022-09-23T06:02:54.199Z,3.80
2022-09-23T06:04:59.534Z,3.90
2022-09-23T06:07:07.198Z,4.10
2022-09-23T06:09:16.315Z,4.10
2022-09-23T06:11:21.720Z,3.90
2022-09-23T06:13:27.174Z,4.10
2022-09-23T06:15:33.047Z,4.00
2022-09-23T06:17:37.915Z,3.80
2022-09-23T06:19:43.098Z,3.80
2022-09-23T06:21:48.270Z,3.90
2022-09-23T06:23:57.289Z,4.00
2022-09-23T06:26:06.460Z,4.20
2022-09-23T06:28:14.570Z,4.30
2022-09-23T06:30:20.016Z,4.30
2022-09-23T06:32:24.907Z,4.50
2022-09-23T06:34:30.966Z,4.60
2022-09-23T06:36:44.004Z,4.60
2022-09-23T06:38:50.514Z,4.70
2022-09-23T06:41:01.495Z,4.80
2022-09-23T06:43:06.723Z,4.90
2022-09-23T06:45:15.369Z,4.90
2022-09-23T06:47:21.051Z,4.90
2022-09-23T06:49:26.641Z,4.80
2022-09-23T06:51:31.981Z,4.80
2022-09-23T06:53:37.627Z,4.90
2022-09-23T06:55:43.199Z,5.10
2022-09-23T06:57:50.674Z,5.30
2022-09-23T06:59:56.658Z,5.40
2022-09-23T07:02:01.720Z,5.40
2022-09-23T07:04:07.866Z,5.50
2022-09-23T07:06:14.439Z,5.50
2022-09-23T07:08:19.302Z,5.60
2022-09-23T07:10:24.246Z,5.70
2022-09-23T07:12:29.597Z,5.80
2022-09-23T07:14:37.027Z,5.80
2022-09-23T07:16:42.361Z,5.90
2022-09-23T07:18:47.373Z,6.00
2022-09-23T07:20:52.651Z,6.00
2022-09-23T07:22:57.836Z,6.10
2022-09-23T07:25:02.829Z,6.10
2022-09-23T07:27:08.557Z,6.20
2022-09-23T07:29:16.971Z,6.30
2022-09-23T07:31:37.029Z,6.30
2022-09-23T07:33:46.126Z,6.40
2022-09-23T07:35:51.327Z,6.50
2022-09-23T07:37:56.309Z,6.50
2022-09-23T07:40:01.170Z,6.60
2022-09-23T07:42:07.832Z,6.70
2022-09-23T07:44:13.519Z,6.70
2022-09-23T07:46:20.708Z,6.80
2022-09-23T07:48:33.294Z,6.90
2022-09-23T07:50:41.275Z,6.90
2022-09-23T07:52:46.179Z,6.90
2022-09-23T07:54:51.618Z,7.00
2022-09-23T07:56:56.480Z,7.00
2022-09-23T07:59:04.584Z,7.10
2022-09-23T08:01:12.328Z,7.20
2022-09-23T08:03:17.847Z,7.10
2022-09-23T08:05:26.367Z,7.20
2022-09-23T08:07:33.015Z,7.40
2022-09-23T08:09:42.088Z,7.40
2022-09-23T08:11:47.535Z,7.40
2022-09-23T08:13:52.780Z,7.40
2022-09-23T08:15:58.210Z,7.50
2022-09-23T08:18:03.369Z,7.60
2022-09-23T08:20:30.657Z,7.70
2022-09-23T08:22:38.335Z,7.80
2022-09-23T08:24:43.613Z,7.80
2022-09-23T08:26:51.467Z,7.90
2022-09-23T08:28:56.593Z,7.90
2022-09-23T08:31:02.273Z,8.00
2022-09-23T08:33:07.373Z,8.00
2022-09-23T08:35:12.558Z,8.10
2022-09-23T08:37:18.317Z,8.30
2022-09-23T08:39:25.769Z,8.30
2022-09-23T08:41:42.668Z,8.30
2022-09-23T08:43:52.261Z,8.50
2022-09-23T08:46:02.945Z,8.50
2022-09-23T08:48:16.287Z,8.60
2022-09-23T08:50:24.503Z,8.70
2022-09-23T08:52:34.659Z,8.80
2022-09-23T08:54:43.438Z,8.80
2022-09-23T08:56:52.665Z,8.90
2022-09-23T08:59:08.197Z,8.90
2022-09-23T09:01:29.001Z,9.10
2022-09-23T09:03:40.552Z,9.40
2022-09-23T09:05:53.952Z,9.50
2022-09-23T09:08:03.463Z,9.50
2022-09-23T09:10:19.564Z,9.50
2022-09-23T09:12:36.245Z,9.50
2022-09-23T09:14:52.873Z,9.70
2022-09-23T09:17:08.623Z,10.20
2022-09-23T09:19:21.790Z,10.30
2022-09-23T09:21:37.719Z,10.60
2022-09-23T09:23:55.009Z,10.70
2022-09-23T09:26:04.145Z,10.90
2022-09-23T09:28:20.202Z,11.40
2022-09-23T09:30:26.249Z,11.50
2022-09-23T09:32:48.634Z,11.70
2022-09-23T09:34:58.657Z,11.50
2022-09-23T09:37:10.081Z,11.90
2022-09-23T09:39:18.879Z,12.30
2022-09-23T09:41:31.803Z,12.20
2022-09-23T09:43:38.844Z,12.70
2022-09-23T09:46:00.400Z,12.60
2022-09-23T09:48:13.625Z,12.20
2022-09-23T09:50:22.107Z,12.20
2022-09-23T09:52:29.827Z,12.10
2022-09-23T09:54:34.759Z,12.50
2022-09-23T09:56:44.973Z,13.10
2022-09-23T09:58:53.813Z,13.00
2022-09-23T10:00:59.836Z,13.00
2022-09-23T10:03:09.193Z,13.00
2022-09-23T10:05:30.562Z,12.80
2022-09-23T10:07:38.527Z,13.10
2022-09-23T10:09:51.496Z,13.20
2022-09-23T10:12:18.891Z,13.30
2022-09-23T10:14:23.780Z,13.10
2022-09-23T10:16:31.781Z,13.20
2022-09-23T10:18:41.990Z,13.40
2022-09-23T10:20:47.366Z,13.80
2022-09-23T10:22:52.350Z,14.10
2022-09-23T10:25:01.424Z,13.90
2022-09-23T10:27:13.068Z,13.80
2022-09-23T10:29:27.942Z,13.70
2022-09-23T10:31:35.457Z,13.80
2022-09-23T10:33:45.427Z,14.00
2022-09-23T10:35:57.527Z,13.90
2022-09-23T10:38:03.200Z,14.00
2022-09-23T10:40:41.356Z,14.20
2022-09-23T10:43:47.412Z,14.20
2022-09-23T10:46:06.787Z,14.20
2022-09-23T10:48:23.100Z,14.20
2022-09-23T10:50:42.027Z,14.30
2022-09-23T10:53:00.611Z,14.20
2022-09-23T10:55:21.078Z,14.10
2022-09-23T10:57:41.743Z,14.40
2022-09-23T11:00:04.373Z,14.50
2022-09-23T11:02:50.623Z,14.80
2022-09-23T11:05:30.633Z,15.10
2022-09-23T11:07:44.387Z,14.90
2022-09-23T11:10:45.536Z,14.80
2022-09-23T11:13:02.631Z,14.70
2022-09-23T11:15:30.051Z,14.90
2022-09-23T11:18:09.234Z,15.00
2022-09-23T11:20:32.574Z,15.00
2022-09-23T11:23:00.970Z,15.10
2022-09-23T11:25:30.357Z,15.60
2022-09-23T11:27:58.136Z,15.50
2022-09-23T11:30:12.186Z,15.60
2022-09-23T11:32:51.990Z,15.40
2022-09-23T11:35:06.949Z,15.40
2022-09-23T11:37:17.836Z,15.80
2022-09-23T11:39:28.072Z,15.80
2022-09-23T11:41:37.348Z,16.00
2022-09-23T11:43:43.870Z,15.70
2022-09-23T11:45:56.515Z,16.00
2022-09-23T11:48:11.453Z,16.10
2022-09-23T11:50:27.777Z,16.40
2022-09-23T11:52:37.764Z,16.30
2022-09-23T11:54:49.211Z,16.30
2022-09-23T11:57:00.025Z,16.50
2022-09-23T11:59:13.076Z,16.50
2022-09-23T12:01:34.727Z,16.40
2022-09-23T12:03:53.541Z,16.50
2022-09-23T12:06:08.136Z,16.80
2022-09-23T12:08:25.514Z,16.80
2022-09-23T12:10:46.700Z,16.90
2022-09-23T12:13:01.872Z,17.00
2022-09-23T12:15:18.853Z,17.20
2022-09-23T12:17:47.836Z,17.20
2022-09-23T12:20:27.909Z,17.60
2022-09-23T12:22:51.624Z,17.40
2022-09-23T12:25:10.347Z,17.40
2022-09-23T12:27:28.798Z,17.30
2022-09-23T12:29:35.547Z,17.30
2022-09-23T12:31:44.153Z,17.70
2022-09-23T12:33:53.705Z,18.20
2022-09-23T12:36:07.722Z,18.80
2022-09-23T12:38:20.773Z,18.90
2022-09-23T12:40:35.698Z,19.40
2022-09-23T12:42:47.068Z,19.40
2022-09-23T12:44:53.692Z,19.00
2022-09-23T12:47:41.782Z,19.00
2022-09-23T12:49:46.979Z,18.70
2022-09-23T12:52:28.743Z,19.10
2022-09-23T12:54:33.682Z,19.30
2022-09-23T12:57:06.826Z,19.20
2022-09-23T12:59:30.774Z,19.60
2022-09-23T13:01:40.607Z,19.70
2022-09-23T13:04:01.982Z,19.90
2022-09-23T13:06:26.351Z,19.80
2022-09-23T13:08:35.516Z,18.80
2022-09-23T13:10:48.337Z,18.40
2022-09-23T13:12:54.558Z,18.50
2022-09-23T13:15:04.962Z,18.80
2022-09-23T13:17:09.903Z,19.20
2022-09-23T13:19:48.401Z,19.30
2022-09-23T13:22:12.234Z,19.10
2022-09-23T13:24:45.299Z,19.00
2022-09-23T13:26:53.615Z,18.90
2022-09-23T13:29:01.375Z,18.80
2022-09-23T13:31:09.028Z,18.80
2022-09-23T13:33:18.979Z,18.80
2022-09-23T13:35:34.267Z,19.00
2022-09-23T13:37:47.891Z,19.00
2022-09-23T13:39:55.378Z,19.00
2022-09-23T13:42:06.128Z,19.20
2022-09-23T13:44:20.787Z,19.40
2022-09-23T13:46:29.740Z,19.90
2022-09-23T13:48:35.223Z,20.00
2022-09-23T13:50:42.832Z,19.70
2022-09-23T13:52:48.714Z,19.60
2022-09-23T13:54:56.380Z,20.00
2022-09-23T13:57:02.715Z,20.80
2022-09-23T13:59:28.534Z,20.80
2022-09-23T14:01:36.352Z,20.40
2022-09-23T14:03:42.362Z,20.80
2022-09-23T14:05:47.737Z,21.40
2022-09-23T14:07:54.794Z,21.40
2022-09-23T14:10:02.298Z,21.90
2022-09-23T14:12:11.044Z,22.20
2022-09-23T14:14:18.528Z,21.80
2022-09-23T14:16:25.209Z,21.90
2022-09-23T14:18:38.220Z,22.00
2022-09-23T14:20:50.783Z,21.40
2022-09-23T14:23:10.296Z,21.50
2022-09-23T14:25:20.989Z,21.50
2022-09-23T14:27:32.397Z,21.30
2022-09-23T14:29:40.465Z,21.20
2022-09-23T14:31:56.964Z,21.30
2022-09-23T14:34:02.505Z,21.60
2022-09-23T14:36:32.366Z,21.80
2022-09-23T14:38:50.363Z,22.10
2022-09-23T14:41:15.730Z,21.50
2022-09-23T14:43:25.917Z,21.10
2022-09-23T14:45:36.464Z,21.00
2022-09-23T14:47:48.147Z,21.20
2022-09-23T14:50:06.739Z,21.50
2022-09-23T14:52:13.825Z,21.10
2022-09-23T14:54:37.328Z,20.50
2022-09-23T14:56:47.627Z,20.50
2022-09-23T14:58:56.858Z,20.60
2022-09-23T15:01:05.340Z,20.90
2022-09-23T15:03:21.155Z,21.30
2022-09-23T15:05:42.668Z,21.30
2022-09-23T15:07:52.301Z,21.60
2022-09-23T15:09:58.439Z,21.70
2022-09-23T15:12:11.429Z,21.60
2022-09-23T15:14:36.541Z,21.10
2022-09-23T15:16:43.170Z,21.00
2022-09-23T15:18:56.667Z,21.10
2022-09-23T15:21:10.109Z,21.00
2022-09-23T15:23:38.120Z,21.00
2022-09-23T15:25:44.679Z,20.70
2022-09-23T15:28:05.871Z,20.10
2022-09-23T15:30:19.602Z,20.00
2022-09-23T15:32:25.060Z,20.00
2022-09-23T15:34:31.644Z,20.20
2022-09-23T15:36:38.897Z,20.30
2022-09-23T15:38:45.463Z,20.20
2022-09-23T15:40:50.863Z,20.20
2022-09-23T15:43:01.600Z,19.90
2022-09-23T15:45:08.180Z,19.90
2022-09-23T15:47:19.544Z,19.40
2022-09-23T15:49:32.114Z,19.30
2022-09-23T15:51:38.305Z,19.50
2022-09-23T15:53:43.456Z,19.50
2022-09-23T15:55:51.400Z,19.60
2022-09-23T15:57:56.444Z,19.70
2022-09-23T16:00:05.116Z,19.90
2022-09-23T16:02:25.632Z,20.00
2022-09-23T16:04:31.480Z,20.00
2022-09-23T16:06:37.586Z,20.00
2022-09-23T16:08:43.403Z,20.00
2022-09-23T16:10:48.802Z,20.00
2022-09-23T16:12:56.535Z,19.90
2022-09-23T16:15:04.081Z,19.70
2022-09-23T16:17:09.701Z,19.60
2022-09-23T16:19:15.660Z,19.40
2022-09-23T16:21:23.951Z,19.30
2022-09-23T16:23:39.143Z,19.10
2022-09-23T16:25:44.520Z,18.80
2022-09-23T16:27:50.168Z,18.20
2022-09-23T16:29:55.129Z,18.10
2022-09-23T16:32:03.658Z,18.20
2022-09-23T16:34:09.950Z,18.10
2022-09-23T16:36:22.788Z,18.10
2022-09-23T16:38:29.012Z,17.80
2022-09-23T16:40:34.203Z,17.70
2022-09-23T16:42:39.676Z,17.60
2022-09-23T16:44:45.072Z,17.30
2022-09-23T16:46:51.708Z,17.20
2022-09-23T16:49:00.500Z,17.00
2022-09-23T16:51:07.733Z,16.80
2022-09-23T16:53:13.380Z,16.70
2022-09-23T16:55:18.586Z,16.80
2022-09-23T16:57:24.332Z,16.70
2022-09-23T16:59:49.399Z,16.60
2022-09-23T17:02:07.547Z,16.70
2022-09-23T17:04:14.195Z,16.50
2022-09-23T17:06:21.205Z,16.40
2022-09-23T17:08:26.666Z,16.10
2022-09-23T17:10:33.027Z,15.80
2022-09-23T17:12:38.391Z,15.60
2022-09-23T17:14:43.786Z,15.40
2022-09-23T17:16:49.546Z,15.60
2022-09-23T17:18:55.445Z,15.70
2022-09-23T17:21:06.149Z,15.80
2022-09-23T17:23:12.413Z,15.70
2022-09-23T17:25:17.753Z,15.40
2022-09-23T17:27:25.445Z,15.50
2022-09-23T17:29:30.610Z,15.10
2022-09-23T17:31:36.013Z,14.60
2022-09-23T17:33:41.706Z,14.50
2022-09-23T17:35:47.022Z,14.40
2022-09-23T17:37:54.612Z,13.90
2022-09-23T17:39:59.635Z,13.70
2022-09-23T17:42:05.475Z,13.60
2022-09-23T17:44:12.512Z,13.80
2022-09-23T17:46:19.805Z,14.20
2022-09-23T17:48:26.304Z,14.30
2022-09-23T17:50:31.472Z,14.30
2022-09-23T17:52:36.441Z,14.30
2022-09-23T17:54:45.223Z,14.20
2022-09-23T17:56:51.559Z,14.00
2022-09-23T17:58:57.001Z,13.60
2022-09-23T18:04:19.238Z,13.30
2022-09-23T18:06:28.615Z,13.30
2022-09-23T18:08:33.821Z,13.40
2022-09-23T18:10:41.649Z,13.50
2022-09-23T18:12:46.546Z,13.50
2022-09-23T18:14:52.126Z,13.50
2022-09-23T18:16:57.865Z,13.30
2022-09-23T18:19:05.755Z,13.10
2022-09-23T18:21:10.776Z,13.00
2022-09-23T18:23:16.071Z,13.00
2022-09-23T18:25:38.101Z,13.00
2022-09-23T18:27:47.540Z,13.10
2022-09-23T18:29:52.388Z,13.20
2022-09-23T18:31:59.441Z,13.10
2022-09-23T18:34:08.652Z,13.20
2022-09-23T18:36:14.610Z,13.20
2022-09-23T18:38:21.139Z,13.20
2022-09-23T18:40:26.195Z,13.20
2022-09-23T18:42:32.883Z,13.10
2022-09-23T18:44:40.711Z,13.20
2022-09-23T18:46:48.035Z,13.20
2022-09-23T18:49:06.259Z,13.00
2022-09-23T18:51:09.613Z,13.00
2022-09-23T18:53:14.470Z,13.00
2022-09-23T18:55:21.441Z,12.70
2022-09-23T18:57:26.328Z,12.40
2022-09-23T18:59:32.036Z,12.40
2022-09-23T19:01:39.785Z,12.30
2022-09-23T19:03:48.589Z,12.30
2022-09-23T19:05:53.783Z,12.10
2022-09-23T19:07:58.867Z,11.80
2022-09-23T19:10:03.914Z,11.80
2022-09-23T19:12:09.094Z,11.70
2022-09-23T19:14:14.864Z,12.00
2022-09-23T19:16:22.277Z,12.00
2022-09-23T19:18:29.956Z,12.00
2022-09-23T19:20:34.848Z,12.10
2022-09-23T19:22:40.070Z,12.00
2022-09-23T19:24:45.413Z,12.00
2022-09-23T19:26:51.109Z,12.10
2022-09-23T19:28:59.999Z,11.80
2022-09-23T19:31:14.568Z,11.80
2022-09-23T19:33:20.065Z,11.80
2022-09-23T19:35:31.660Z,11.90
2022-09-23T19:37:37.032Z,11.80
2022-09-23T19:39:42.743Z,11.80
2022-09-23T19:41:50.249Z,11.70
2022-09-23T19:43:58.655Z,11.70
2022-09-23T19:46:04.281Z,11.90
2022-09-23T19:48:17.178Z,11.90
2022-09-23T19:50:22.105Z,12.00
2022-09-23T19:52:30.338Z,12.00
2022-09-23T19:54:35.938Z,11.70
2022-09-23T19:56:49.015Z,11.40
2022-09-23T19:58:55.712Z,11.30
2022-09-23T20:01:00.950Z,11.30
2022-09-23T20:03:07.149Z,11.20
2022-09-23T20:05:14.569Z,11.10
2022-09-23T20:07:21.703Z,11.20
2022-09-23T20:09:31.263Z,11.30
2022-09-23T20:11:36.227Z,11.30
2022-09-23T20:13:42.668Z,11.30
2022-09-23T20:15:49.174Z,11.40
2022-09-23T20:17:54.451Z,11.20
2022-09-23T20:20:00.047Z,11.30
2022-09-23T20:22:17.441Z,11.30
2022-09-23T20:24:22.828Z,11.20
2022-09-23T20:26:42.860Z,11.20
2022-09-23T20:28:49.993Z,11.10
2022-09-23T20:31:00.423Z,11.20
2022-09-23T20:33:05.368Z,11.30
2022-09-23T20:35:11.207Z,11.40
2022-09-23T20:37:17.626Z,11.40
2022-09-23T20:39:22.569Z,11.40
2022-09-23T20:41:37.905Z,11.40
2022-09-23T20:43:43.865Z,11.40
2022-09-23T20:46:02.752Z,11.40
2022-09-23T20:48:11.713Z,11.40
2022-09-23T20:50:16.910Z,11.40
2022-09-23T20:52:25.077Z,11.20
2022-09-23T20:54:30.640Z,11.10
2022-09-23T20:56:43.104Z,10.70
2022-09-23T20:58:50.457Z,10.80
2022-09-23T21:00:55.936Z,10.90
2022-09-23T21:03:02.783Z,11.00
2022-09-23T21:05:10.420Z,10.90
2022-09-23T21:07:17.889Z,10.90
2022-09-23T21:09:23.048Z,10.90
2022-09-23T21:11:29.203Z,11.10
2022-09-23T21:13:37.207Z,11.20
2022-09-23T21:15:46.223Z,11.20
2022-09-23T21:17:51.111Z,11.10
2022-09-23T21:19:56.023Z,11.20
2022-09-23T21:22:02.180Z,11.20
2022-09-23T21:24:39.736Z,11.20
2022-09-23T21:26:32.860Z,11.10
2022-09-23T21:28:42.167Z,11.10
2022-09-23T21:30:51.661Z,11.10
2022-09-23T21:32:57.891Z,11.10
2022-09-23T21:35:03.165Z,11.10
2022-09-23T21:37:12.823Z,11.00
2022-09-23T21:39:17.875Z,11.00
2022-09-23T21:41:21.144Z,11.00
2022-09-23T21:43:28.332Z,11.00
2022-09-23T21:45:38.441Z,10.90
2022-09-23T21:47:43.744Z,10.80
2022-09-23T21:49:50.885Z,10.80
2022-09-23T21:51:59.944Z,10.70
2022-09-23T21:54:10.248Z,10.70
2022-09-23T21:56:21.058Z,10.70
2022-09-23T21:58:32.026Z,10.60
2022-09-23T22:00:39.625Z,10.50
2022-09-23T22:02:44.667Z,10.20
2022-09-23T22:04:49.564Z,10.20
2022-09-23T22:06:54.893Z,10.30
2022-09-23T22:09:02.680Z,10.50
2022-09-23T22:11:30.854Z,10.60
2022-09-23T22:13:33.758Z,10.60
2022-09-23T22:15:44.737Z,10.70
2022-09-23T22:17:50.692Z,10.70
2022-09-23T22:19:58.539Z,10.60
2022-09-23T22:22:04.875Z,10.70
2022-09-23T22:24:12.521Z,10.60
2022-09-23T22:26:17.444Z,10.40
2022-09-23T22:28:38.184Z,10.30
2022-09-23T22:31:03.827Z,10.20
2022-09-23T22:33:09.510Z,10.10
2022-09-23T22:35:20.864Z,10.10
2022-09-23T22:37:30.374Z,10.10
2022-09-23T22:39:35.458Z,10.10
2022-09-23T22:41:41.148Z,10.20
2022-09-23T22:43:46.353Z,10.20
2022-09-23T22:45:55.070Z,10.20
2022-09-23T22:48:02.152Z,10.20
2022-09-23T22:50:17.883Z,10.30
2022-09-23T22:52:24.479Z,10.30
2022-09-23T22:54:33.918Z,10.30
